Time;durP1;ratioP1;P1;durP2;ratioP2;P2;SDS_P1;SDS_P2;PMS_P1;PMS_P2;Temp;Humidity;BMP_temperature;BMP_pressure;BME280_temperature;BME280_humidity;BME280_pressure;Samples;Min_cycle;Max_cycle;Signal;HPM_P1;HPM_P2
2023/11/14 00:02:24;;;;;;;5.40;3.70;;;5.20;99.90;;;;;;5075214;28;20048;-75
2023/11/14 00:04:50;;;;;;;8.13;4.05;;;5.10;99.90;;;;;;5075459;28;20035;-75
2023/11/14 00:07:16;;;;;;;5.10;2.65;;;5.10;99.90;;;;;;5074950;28;20070;-75
2023/11/14 00:09:42;;;;;;;7.45;3.90;;;5.10;99.90;;;;;;5076970;28;20168;-75
2023/11/14 00:12:07;;;;;;;6.30;3.63;;;5.20;99.90;;;;;;5078649;28;20130;-74
2023/11/14 00:14:35;;;;;;;7.55;4.72;;;5.40;99.90;;;;;;5076772;28;20043;-74
2023/11/14 00:17:01;;;;;;;7.70;4.60;;;5.50;99.90;;;;;;5076913;28;20032;-75
2023/11/14 00:19:27;;;;;;;5.82;3.67;;;5.50;99.90;;;;;;5079128;28;20496;-75
2023/11/14 00:21:52;;;;;;;6.65;4.07;;;5.50;99.90;;;;;;5080120;28;20032;-75
2023/11/14 00:24:18;;;;;;;6.47;3.88;;;5.60;99.90;;;;;;5079715;28;20093;-75
2023/11/14 00:26:44;;;;;;;7.65;3.95;;;5.50;99.90;;;;;;5077197;28;20047;-75
2023/11/14 00:29:09;;;;;;;8.88;4.05;;;5.60;99.90;;;;;;5079812;28;20035;-74
2023/11/14 00:31:35;;;;;;;7.38;4.95;;;5.50;99.90;;;;;;5079340;28;20154;-74
2023/11/14 00:34:01;;;;;;;6.30;3.63;;;5.50;99.90;;;;;;5079506;28;20047;-74
2023/11/14 00:36:26;;;;;;;7.95;4.10;;;5.50;99.90;;;;;;5078485;28;20063;-74
2023/11/14 00:38:52;;;;;;;5.90;3.97;;;5.50;99.90;;;;;;5079375;28;20063;-75
2023/11/14 00:41:18;;;;;;;8.32;4.30;;;5.60;99.90;;;;;;5079468;28;20031;-75
2023/11/14 00:43:43;;;;;;;7.00;4.13;;;5.40;99.90;;;;;;5079331;28;20207;-75
2023/11/14 00:46:14;;;;;;;9.57;4.70;;;5.40;99.90;;;;;;5078397;28;20136;-74
2023/11/14 00:48:40;;;;;;;9.73;5.30;;;5.30;99.90;;;;;;5079041;28;20030;-75
2023/11/14 00:51:06;;;;;;;8.63;4.45;;;5.20;99.90;;;;;;5078822;28;20036;-75
2023/11/14 00:53:32;;;;;;;11.80;4.30;;;5.30;99.90;;;;;;5079280;28;20521;-75
2023/11/14 00:55:57;;;;;;;7.13;4.22;;;5.20;99.90;;;;;;5077631;28;20059;-75
2023/11/14 00:58:24;;;;;;;7.95;3.70;;;5.30;99.90;;;;;;5078603;28;20547;-75
2023/11/14 01:00:50;;;;;;;8.60;4.57;;;5.20;99.90;;;;;;5078887;28;20075;-74
2023/11/14 01:03:15;;;;;;;8.63;3.70;;;5.30;99.90;;;;;;5078980;28;20623;-74
2023/11/14 01:05:41;;;;;;;7.85;4.03;;;5.40;99.90;;;;;;5078993;28;20032;-74
2023/11/14 01:08:06;;;;;;;13.63;4.57;;;5.40;99.90;;;;;;5077860;28;20051;-74
2023/11/14 01:10:32;;;;;;;8.82;4.40;;;5.40;99.90;;;;;;5078820;28;20067;-74
2023/11/14 01:13:00;;;;;;;10.40;4.93;;;5.30;99.90;;;;;;5079117;28;20118;-74
2023/11/14 01:15:26;;;;;;;8.18;4.60;;;5.30;99.90;;;;;;5078974;28;20068;-75
2023/11/14 01:17:52;;;;;;;5.82;3.58;;;5.30;99.90;;;;;;5078294;28;20036;-74
2023/11/14 01:20:18;;;;;;;8.00;5.07;;;5.20;99.90;;;;;;5078701;28;20028;-74
2023/11/14 01:22:44;;;;;;;8.48;5.03;;;5.30;99.90;;;;;;5080375;28;20036;-74
2023/11/14 01:25:09;;;;;;;7.32;4.80;;;5.50;99.90;;;;;;5083431;28;20028;-74
2023/11/14 01:27:36;;;;;;;9.40;5.38;;;5.30;99.90;;;;;;5082496;28;20032;-74
2023/11/14 01:30:02;;;;;;;9.57;5.15;;;5.30;99.90;;;;;;5082738;28;20055;-74
2023/11/14 01:32:28;;;;;;;9.73;4.43;;;5.20;99.90;;;;;;5083160;28;20048;-74
2023/11/14 01:34:53;;;;;;;7.43;4.22;;;5.10;99.90;;;;;;5083096;28;20110;-74
2023/11/14 01:37:19;;;;;;;8.82;4.43;;;5.10;99.90;;;;;;5081501;28;20036;-75
2023/11/14 01:39:45;;;;;;;8.40;4.40;;;5.10;99.90;;;;;;5083591;28;20024;-74
2023/11/14 01:42:11;;;;;;;7.43;4.85;;;5.20;99.90;;;;;;5083099;28;20032;-74
2023/11/14 01:44:37;;;;;;;8.07;4.82;;;5.20;99.90;;;;;;5083045;28;20031;-74
2023/11/14 01:47:02;;;;;;;9.00;4.85;;;5.10;99.90;;;;;;5081597;28;20097;-74
2023/11/14 01:49:29;;;;;;;8.63;5.20;;;5.10;99.90;;;;;;5082092;28;20036;-75
2023/11/14 01:51:56;;;;;;;7.82;4.60;;;5.20;99.90;;;;;;5082245;28;20032;-74
2023/11/14 01:54:21;;;;;;;7.25;5.07;;;5.00;99.90;;;;;;5081810;28;20118;-74
2023/11/14 01:56:49;;;;;;;7.40;4.68;;;5.20;99.90;;;;;;5081145;28;20527;-75
2023/11/14 01:59:15;;;;;;;9.88;4.78;;;5.10;99.90;;;;;;5082263;28;20479;-74
2023/11/14 02:01:42;;;;;;;8.65;4.97;;;5.20;99.90;;;;;;5082770;28;20052;-74
2023/11/14 02:04:12;;;;;;;8.50;4.53;;;5.10;99.90;;;;;;5083094;28;20453;-74
2023/11/14 02:06:38;;;;;;;10.20;5.65;;;5.00;99.90;;;;;;5081523;28;20059;-74
2023/11/14 02:09:07;;;;;;;8.73;5.50;;;5.10;99.90;;;;;;5082019;28;20489;-74
2023/11/14 02:11:34;;;;;;;7.03;4.70;;;5.10;99.90;;;;;;5082087;28;20032;-74
2023/11/14 02:14:00;;;;;;;7.68;4.85;;;5.00;99.90;;;;;;5081927;28;20071;-74
2023/11/14 02:16:27;;;;;;;7.75;5.00;;;5.20;99.90;;;;;;5080541;28;20603;-74
2023/11/14 02:18:53;;;;;;;7.50;4.72;;;5.00;99.90;;;;;;5082057;28;21681;-74
2023/11/14 02:21:21;;;;;;;7.40;4.53;;;5.20;99.90;;;;;;5082760;28;20036;-74
2023/11/14 02:23:49;;;;;;;8.52;5.47;;;5.20;99.90;;;;;;5082343;28;20136;-75
2023/11/14 02:26:16;;;;;;;7.60;4.88;;;5.20;99.90;;;;;;5081889;28;20144;-74
2023/11/14 02:28:41;;;;;;;9.57;5.47;;;5.10;99.90;;;;;;5080427;28;20524;-74
2023/11/14 02:31:07;;;;;;;7.68;4.85;;;5.10;99.90;;;;;;5081877;28;20130;-74
2023/11/14 02:33:37;;;;;;;8.13;4.53;;;4.80;99.90;;;;;;5081588;28;20155;-74
2023/11/14 02:36:05;;;;;;;7.40;4.57;;;4.90;99.90;;;;;;5080896;28;20137;-74
2023/11/14 02:38:31;;;;;;;9.27;4.47;;;5.00;99.90;;;;;;5081855;28;20117;-74
2023/11/14 02:40:57;;;;;;;8.57;4.28;;;5.10;99.90;;;;;;5081816;28;20041;-74
2023/11/14 02:43:22;;;;;;;8.40;4.75;;;5.10;99.90;;;;;;5079381;28;20623;-74
2023/11/14 02:45:48;;;;;;;10.90;4.90;;;5.00;99.90;;;;;;5080187;28;20036;-74
2023/11/14 02:48:14;;;;;;;10.52;5.10;;;5.10;99.90;;;;;;5081868;28;20032;-74
2023/11/14 02:50:52;;;;;;;7.88;4.35;;;5.10;99.90;;;;;;5079660;28;20469;-74
2023/11/14 02:53:21;;;;;;;9.68;5.20;;;5.10;99.90;;;;;;5080829;28;20508;-74
2023/11/14 02:55:48;;;;;;;8.13;4.65;;;5.10;99.90;;;;;;5080578;28;20024;-74
2023/11/14 02:58:14;;;;;;;10.07;4.65;;;5.00;99.90;;;;;;5081563;28;20059;-75
2023/11/14 03:00:41;;;;;;;8.00;4.85;;;4.90;99.90;;;;;;5080201;28;20063;-74
2023/11/14 03:03:09;;;;;;;10.98;4.75;;;4.90;99.90;;;;;;5081492;28;20038;-74
2023/11/14 03:05:36;;;;;;;7.75;5.15;;;4.80;99.90;;;;;;5081393;28;20074;-74
2023/11/14 03:08:02;;;;;;;7.07;4.45;;;4.80;99.90;;;;;;5081448;28;20386;-75
2023/11/14 03:10:30;;;;;;;8.75;4.88;;;4.80;99.90;;;;;;5081551;28;20038;-74
2023/11/14 03:12:56;;;;;;;8.30;4.68;;;4.90;99.90;;;;;;5080434;28;20032;-74
2023/11/14 03:15:22;;;;;;;8.02;4.55;;;4.80;99.90;;;;;;5079995;28;20530;-74
2023/11/14 03:17:48;;;;;;;8.05;4.53;;;4.70;99.90;;;;;;5081440;28;20132;-74
2023/11/14 03:20:13;;;;;;;9.02;4.55;;;4.80;99.90;;;;;;5081196;28;20020;-74
2023/11/14 03:22:39;;;;;;;9.20;4.35;;;4.70;99.90;;;;;;5079631;28;20060;-74
2023/11/14 03:25:05;;;;;;;8.65;5.25;;;4.80;99.90;;;;;;5080306;28;20086;-74
2023/11/14 03:27:31;;;;;;;8.93;5.07;;;4.80;99.90;;;;;;5080393;28;20043;-74
2023/11/14 03:29:57;;;;;;;8.02;5.10;;;4.80;99.90;;;;;;5080619;28;20070;-74
2023/11/14 03:32:23;;;;;;;7.20;4.60;;;4.80;99.90;;;;;;5081320;28;20032;-74
2023/11/14 03:34:49;;;;;;;7.07;4.50;;;4.70;99.90;;;;;;5080400;28;21299;-74
2023/11/14 03:37:14;;;;;;;8.05;4.72;;;4.70;99.90;;;;;;5080730;28;20027;-74
2023/11/14 03:39:41;;;;;;;8.45;5.13;;;4.60;99.90;;;;;;5080935;28;20032;-74
2023/11/14 03:42:07;;;;;;;8.32;4.88;;;4.60;99.90;;;;;;5080961;28;20038;-74
2023/11/14 03:44:33;;;;;;;8.70;5.75;;;4.50;99.90;;;;;;5078731;28;20035;-74
2023/11/14 03:46:59;;;;;;;9.63;5.18;;;4.50;99.90;;;;;;5080337;28;20028;-74
2023/11/14 03:49:24;;;;;;;10.23;4.78;;;4.50;99.90;;;;;;5079239;28;20040;-74
2023/11/14 03:51:50;;;;;;;10.57;5.60;;;4.60;99.90;;;;;;5079806;28;20047;-74
2023/11/14 03:54:16;;;;;;;9.45;5.38;;;4.70;99.90;;;;;;5080075;28;20032;-74
2023/11/14 03:56:41;;;;;;;8.18;5.45;;;4.70;99.90;;;;;;5081232;28;20126;-74
2023/11/14 03:59:07;;;;;;;7.47;5.55;;;4.90;99.90;;;;;;5080355;28;20493;-74
2023/11/14 04:01:32;;;;;;;9.32;5.05;;;4.90;99.90;;;;;;5079304;28;20051;-74
2023/11/14 04:03:59;;;;;;;9.10;5.03;;;4.80;99.90;;;;;;5074377;28;20039;-75
2023/11/14 04:06:24;;;;;;;8.70;5.30;;;4.80;99.90;;;;;;5075208;28;20032;-75
2023/11/14 04:08:50;;;;;;;7.45;5.28;;;4.70;99.90;;;;;;5075246;28;20914;-75
2023/11/14 04:11:16;;;;;;;8.38;4.75;;;4.60;99.90;;;;;;5075320;28;20122;-75
2023/11/14 04:13:42;;;;;;;7.13;4.68;;;4.70;99.90;;;;;;5074992;28;20027;-75
2023/11/14 04:16:08;;;;;;;10.45;5.18;;;4.70;99.90;;;;;;5075102;28;20081;-75
2023/11/14 04:18:33;;;;;;;8.10;5.25;;;4.70;99.90;;;;;;5071745;28;20040;-75
2023/11/14 04:20:59;;;;;;;8.35;5.18;;;4.80;99.90;;;;;;5072524;28;20059;-75
2023/11/14 04:23:25;;;;;;;9.82;5.32;;;4.80;99.90;;;;;;5072350;28;20039;-75
2023/11/14 04:25:51;;;;;;;9.10;5.72;;;4.70;99.90;;;;;;5072326;28;20067;-75
2023/11/14 04:28:17;;;;;;;7.18;4.22;;;4.70;99.90;;;;;;5071690;28;20149;-74
2023/11/14 04:30:43;;;;;;;7.15;4.63;;;4.70;99.90;;;;;;5072029;28;20028;-74
2023/11/14 04:33:08;;;;;;;8.05;5.00;;;4.80;99.90;;;;;;5072542;28;20115;-75
2023/11/14 04:35:34;;;;;;;8.52;5.18;;;4.80;99.90;;;;;;5072887;28;20058;-75
2023/11/14 04:38:00;;;;;;;10.07;5.13;;;4.80;99.90;;;;;;5072857;28;20032;-75
2023/11/14 04:40:25;;;;;;;7.20;4.57;;;5.00;99.90;;;;;;5073215;28;20146;-74
2023/11/14 04:42:52;;;;;;;7.72;4.82;;;4.90;99.90;;;;;;5072583;28;20386;-75
2023/11/14 04:45:18;;;;;;;7.90;4.35;;;5.00;99.90;;;;;;5071262;28;20060;-75
2023/11/14 04:47:44;;;;;;;11.20;4.22;;;5.00;99.90;;;;;;5074911;28;20024;-75
2023/11/14 04:50:10;;;;;;;7.28;4.38;;;5.00;99.90;;;;;;5075658;28;20039;-75
2023/11/14 04:52:36;;;;;;;7.60;5.03;;;4.90;99.90;;;;;;5075593;28;20044;-74
2023/11/14 04:55:04;;;;;;;10.98;5.40;;;4.90;99.90;;;;;;5076272;28;20555;-75
2023/11/14 04:57:30;;;;;;;9.95;5.45;;;5.00;99.90;;;;;;5075455;28;20024;-75
2023/11/14 04:59:55;;;;;;;8.48;5.40;;;5.00;99.90;;;;;;5072404;28;20049;-75
2023/11/14 05:02:23;;;;;;;7.30;5.05;;;5.10;99.90;;;;;;5071991;28;20079;-74
2023/11/14 05:04:49;;;;;;;9.80;4.82;;;5.20;99.90;;;;;;5070641;28;20081;-75
2023/11/14 05:07:15;;;;;;;9.23;4.97;;;5.20;99.90;;;;;;5071714;28;20084;-75
2023/11/14 05:09:41;;;;;;;8.00;4.60;;;5.20;99.90;;;;;;5070460;28;20032;-75
2023/11/14 05:12:07;;;;;;;8.35;5.20;;;5.20;99.90;;;;;;5070724;28;20040;-74
2023/11/14 05:14:33;;;;;;;7.60;4.97;;;5.20;99.90;;;;;;5072632;28;20097;-74
2023/11/14 05:16:58;;;;;;;7.72;4.97;;;5.30;99.90;;;;;;5071413;28;20383;-75
2023/11/14 05:19:24;;;;;;;8.68;4.80;;;5.50;99.90;;;;;;5071533;28;20039;-75
2023/11/14 05:21:50;;;;;;;15.07;9.60;;;5.50;99.90;;;;;;5072364;28;20486;-75
2023/11/14 05:24:16;;;;;;;9.50;6.78;;;5.20;99.90;;;;;;5070981;28;20054;-75
2023/11/14 05:26:42;;;;;;;9.98;6.53;;;5.20;99.90;;;;;;5072627;28;20042;-75
2023/11/14 05:29:08;;;;;;;10.50;5.40;;;5.00;99.90;;;;;;5070061;28;20704;-74
2023/11/14 05:31:35;;;;;;;14.48;6.47;;;4.90;99.90;;;;;;5072119;28;20040;-75
2023/11/14 05:34:01;;;;;;;10.85;5.38;;;4.90;99.90;;;;;;5072470;28;20389;-75
2023/11/14 05:36:27;;;;;;;8.48;5.63;;;4.90;99.90;;;;;;5070427;28;20048;-74
2023/11/14 05:38:53;;;;;;;10.82;5.50;;;4.80;99.90;;;;;;5070786;28;20040;-75
2023/11/14 05:41:21;;;;;;;8.93;4.50;;;4.80;99.90;;;;;;5072466;28;20466;-74
2023/11/14 05:43:47;;;;;;;8.70;4.70;;;4.70;99.90;;;;;;5072240;28;20541;-75
2023/11/14 05:46:13;;;;;;;8.05;4.63;;;4.60;99.90;;;;;;5070811;28;20500;-75
2023/11/14 05:48:39;;;;;;;8.38;4.85;;;4.50;99.90;;;;;;5071337;28;20036;-75
2023/11/14 05:51:04;;;;;;;6.53;3.88;;;4.50;99.90;;;;;;5071771;28;20580;-75
2023/11/14 05:53:31;;;;;;;8.38;4.60;;;4.50;99.90;;;;;;5071722;28;20043;-75
2023/11/14 05:55:57;;;;;;;7.82;4.47;;;4.50;99.90;;;;;;5072617;28;20678;-75
2023/11/14 05:58:23;;;;;;;8.85;4.35;;;4.60;99.90;;;;;;5071492;28;20023;-74
2023/11/14 06:00:49;;;;;;;9.70;5.55;;;4.60;99.90;;;;;;5072221;28;20086;-74
2023/11/14 06:03:16;;;;;;;7.78;4.70;;;4.80;99.90;;;;;;5071666;28;20589;-75
2023/11/14 06:05:42;;;;;;;8.55;5.15;;;4.90;99.90;;;;;;5072724;28;20617;-75
2023/11/14 06:08:07;;;;;;;7.32;4.53;;;4.90;99.90;;;;;;5071720;28;20139;-75
2023/11/14 06:10:33;;;;;;;7.32;4.88;;;4.80;99.90;;;;;;5075328;28;20040;-74
2023/11/14 06:12:59;;;;;;;9.10;5.43;;;4.80;99.90;;;;;;5079218;28;20043;-75
2023/11/14 06:15:25;;;;;;;17.67;13.57;;;4.90;99.90;;;;;;5076245;28;20058;-75
2023/11/14 06:17:51;;;;;;;12.18;6.05;;;4.90;99.90;;;;;;5075477;28;20036;-74
2023/11/14 06:20:17;;;;;;;9.73;5.18;;;4.80;99.90;;;;;;5074954;28;20024;-75
2023/11/14 06:22:42;;;;;;;7.90;4.70;;;4.80;99.90;;;;;;5074620;28;20040;-74
2023/11/14 06:25:08;;;;;;;8.48;4.70;;;4.80;99.90;;;;;;5074588;28;20137;-75
2023/11/14 06:27:34;;;;;;;9.25;4.25;;;4.80;99.90;;;;;;5075148;28;20036;-75
2023/11/14 06:30:00;;;;;;;7.10;4.50;;;4.90;99.90;;;;;;5075722;28;20093;-75
2023/11/14 06:32:25;;;;;;;7.22;3.97;;;4.80;99.90;;;;;;5075481;28;20044;-74
2023/11/14 06:34:52;;;;;;;7.00;4.00;;;4.80;99.90;;;;;;5079661;28;20032;-74
2023/11/14 06:37:19;;;;;;;6.78;4.65;;;4.70;99.90;;;;;;5076884;28;20100;-74
2023/11/14 06:39:47;;;;;;;7.38;4.53;;;4.70;99.90;;;;;;5075461;28;20059;-76
2023/11/14 06:42:14;;;;;;;7.53;4.93;;;4.80;99.90;;;;;;5075566;28;20042;-76
2023/11/14 06:44:43;;;;;;;8.30;4.40;;;4.80;99.90;;;;;;5072776;28;20036;-76
2023/11/14 06:47:09;;;;;;;9.88;5.30;;;4.80;99.90;;;;;;5073812;28;20123;-76
2023/11/14 06:49:35;;;;;;;7.97;5.18;;;4.80;99.90;;;;;;5075670;28;20673;-77
2023/11/14 06:52:01;;;;;;;8.38;4.50;;;4.70;99.90;;;;;;5074168;28;20590;-76
2023/11/14 06:54:26;;;;;;;9.93;5.72;;;4.60;99.90;;;;;;5073885;28;20060;-76
2023/11/14 06:56:52;;;;;;;9.73;5.70;;;4.70;99.90;;;;;;5074547;28;20043;-76
2023/11/14 06:59:18;;;;;;;9.27;5.35;;;4.60;99.90;;;;;;5074363;28;20106;-77
2023/11/14 07:01:49;;;;;;;9.80;5.45;;;4.70;99.90;;;;;;5074226;28;20063;-77
2023/11/14 07:04:15;;;;;;;9.82;6.10;;;4.70;99.90;;;;;;5075729;28;20035;-76
2023/11/14 07:06:41;;;;;;;7.68;4.65;;;4.80;99.90;;;;;;5074373;28;20035;-76
2023/11/14 07:09:06;;;;;;;9.02;5.28;;;4.80;99.90;;;;;;5074124;28;20066;-77
2023/11/14 07:11:32;;;;;;;9.15;5.15;;;4.90;99.90;;;;;;5073293;28;20545;-76
2023/11/14 07:13:59;;;;;;;8.18;5.13;;;5.00;99.90;;;;;;5074729;28;20386;-76
2023/11/14 07:16:27;;;;;;;10.40;6.10;;;5.00;99.90;;;;;;5073012;28;20477;-77
2023/11/14 07:18:53;;;;;;;9.25;6.05;;;5.10;99.90;;;;;;5073889;28;20038;-77
2023/11/14 07:21:19;;;;;;;10.25;5.50;;;5.10;99.90;;;;;;5074232;28;20123;-77
2023/11/14 07:23:45;;;;;;;8.70;5.43;;;5.00;99.90;;;;;;5074440;28;20787;-76
2023/11/14 07:26:10;;;;;;;9.38;5.60;;;5.00;99.90;;;;;;5074226;28;20028;-77
2023/11/14 07:28:37;;;;;;;8.73;5.00;;;4.90;99.90;;;;;;5073558;28;20038;-77
2023/11/14 07:31:03;;;;;;;12.27;5.80;;;4.90;99.90;;;;;;5074393;28;20071;-76
2023/11/14 07:33:29;;;;;;;9.15;5.15;;;4.70;99.90;;;;;;5073552;28;20846;-76
2023/11/14 07:35:56;;;;;;;8.57;5.85;;;4.70;99.90;;;;;;5073910;28;20090;-76
2023/11/14 07:38:21;;;;;;;8.40;4.78;;;4.80;99.90;;;;;;5073199;28;20442;-77
2023/11/14 07:40:47;;;;;;;8.85;5.05;;;4.80;99.90;;;;;;5074590;28;20051;-76
2023/11/14 07:43:14;;;;;;;8.48;5.13;;;4.90;99.90;;;;;;5073670;28;20520;-76
2023/11/14 07:45:40;;;;;;;8.07;4.88;;;5.10;99.90;;;;;;5073949;28;20020;-76
2023/11/14 07:48:07;;;;;;;8.25;5.13;;;5.30;99.90;;;;;;5074826;28;20024;-77
2023/11/14 07:50:33;;;;;;;8.82;5.50;;;5.40;99.90;;;;;;5074106;28;20521;-75
2023/11/14 07:52:59;;;;;;;9.43;5.18;;;5.40;99.90;;;;;;5073151;28;20110;-75
2023/11/14 07:55:25;;;;;;;7.43;4.82;;;5.30;99.90;;;;;;5072687;28;20023;-75
2023/11/14 07:57:50;;;;;;;10.25;5.25;;;5.30;99.90;;;;;;5075009;28;20397;-75
2023/11/14 08:00:17;;;;;;;10.10;4.47;;;5.40;99.90;;;;;;5073579;28;20048;-75
2023/11/14 08:02:43;;;;;;;9.27;5.18;;;5.40;99.90;;;;;;5073456;28;20623;-74
2023/11/14 08:05:09;;;;;;;11.20;5.47;;;5.30;99.90;;;;;;5072971;28;20031;-74
2023/11/14 08:07:35;;;;;;;11.23;5.28;;;5.30;99.90;;;;;;5073821;28;20058;-76
2023/11/14 08:10:01;;;;;;;7.95;5.15;;;5.20;99.90;;;;;;5073790;28;20032;-76
2023/11/14 08:12:27;;;;;;;8.15;5.00;;;5.30;99.90;;;;;;5073826;28;20036;-76
2023/11/14 08:14:53;;;;;;;7.85;5.00;;;5.30;99.90;;;;;;5073959;28;20066;-75
2023/11/14 08:17:18;;;;;;;8.35;5.35;;;5.30;99.90;;;;;;5073686;28;20036;-75
2023/11/14 08:19:47;;;;;;;8.32;5.07;;;5.20;99.90;;;;;;5074905;28;20024;-75
2023/11/14 08:22:13;;;;;;;8.82;4.88;;;5.20;99.90;;;;;;5073372;28;20118;-77
2023/11/14 08:24:38;;;;;;;11.68;5.95;;;5.30;99.90;;;;;;5073351;28;20032;-75
2023/11/14 08:27:05;;;;;;;9.32;6.32;;;5.20;99.90;;;;;;5072748;28;20024;-77
2023/11/14 08:29:32;;;;;;;11.75;6.68;;;5.10;99.90;;;;;;5070807;28;20060;-75
2023/11/14 08:31:58;;;;;;;11.77;6.60;;;5.10;99.90;;;;;;5072230;28;20067;-76
2023/11/14 08:34:24;;;;;;;9.25;6.43;;;5.00;99.90;;;;;;5073228;28;20184;-75
2023/11/14 08:36:50;;;;;;;11.45;7.65;;;5.10;99.90;;;;;;5072903;28;20028;-75
2023/11/14 08:39:16;;;;;;;10.38;6.57;;;5.20;99.90;;;;;;5073194;28;20032;-76
2023/11/14 08:41:42;;;;;;;9.25;6.05;;;5.20;99.90;;;;;;5072477;28;20028;-74
2023/11/14 08:44:08;;;;;;;8.57;5.30;;;5.20;99.90;;;;;;5073446;28;20036;-74
2023/11/14 08:46:35;;;;;;;9.63;6.05;;;5.20;99.90;;;;;;5073489;28;20036;-75
2023/11/14 08:49:06;;;;;;;10.43;7.03;;;5.20;99.90;;;;;;5068621;28;20123;-74
2023/11/14 08:51:33;;;;;;;12.13;7.28;;;5.30;99.90;;;;;;5063701;28;20045;-74
2023/11/14 08:53:58;;;;;;;14.23;7.22;;;5.20;99.90;;;;;;5067561;28;20036;-72
2023/11/14 08:56:24;;;;;;;12.75;6.82;;;5.10;99.90;;;;;;5071232;28;20027;-72
2023/11/14 08:58:50;;;;;;;11.05;7.03;;;4.90;99.90;;;;;;5072163;28;20080;-73
2023/11/14 09:01:15;;;;;;;7.80;5.22;;;5.10;99.90;;;;;;5073387;28;20040;-72
2023/11/14 09:03:44;;;;;;;8.00;4.93;;;5.20;99.90;;;;;;5069784;28;20062;-72
2023/11/14 09:06:09;;;;;;;10.02;5.65;;;5.40;99.90;;;;;;5073090;28;20028;-72
2023/11/14 09:08:37;;;;;;;10.93;5.32;;;5.30;99.90;;;;;;5072981;28;20067;-73
2023/11/14 09:11:04;;;;;;;7.93;4.85;;;5.40;99.90;;;;;;5072253;28;20096;-73
2023/11/14 09:13:30;;;;;;;8.40;4.78;;;5.40;99.90;;;;;;5073720;28;20047;-73
2023/11/14 09:15:56;;;;;;;8.07;5.35;;;5.60;99.90;;;;;;5072172;28;20004;-73
2023/11/14 09:18:23;;;;;;;7.82;5.15;;;5.60;99.90;;;;;;5072734;28;20416;-73
2023/11/14 09:20:49;;;;;;;10.45;6.13;;;5.80;99.90;;;;;;5073402;28;20085;-72
2023/11/14 09:23:15;;;;;;;7.95;5.32;;;5.90;99.90;;;;;;5072229;28;20024;-72
2023/11/14 09:25:41;;;;;;;8.63;4.57;;;5.90;99.90;;;;;;5073063;28;20024;-73
2023/11/14 09:28:07;;;;;;;8.60;5.30;;;6.00;99.90;;;;;;5072458;28;20475;-73
2023/11/14 09:30:34;;;;;;;7.68;5.45;;;6.10;99.90;;;;;;5072855;28;20024;-72
2023/11/14 09:33:00;;;;;;;6.90;4.63;;;6.10;99.90;;;;;;5072647;28;20761;-73
2023/11/14 09:35:26;;;;;;;8.07;5.05;;;6.00;99.90;;;;;;5072563;28;20032;-73
2023/11/14 09:37:52;;;;;;;9.27;5.18;;;6.10;99.90;;;;;;5070189;28;20036;-73
2023/11/14 09:40:22;;;;;;;9.40;5.60;;;6.00;99.90;;;;;;5072699;28;20866;-73
2023/11/14 09:42:50;;;;;;;7.90;5.07;;;6.10;99.90;;;;;;5072589;28;20032;-72
2023/11/14 09:45:20;;;;;;;25.15;18.70;;;6.30;99.90;;;;;;5076106;28;20628;-72
2023/11/14 09:47:46;;;;;;;10.00;7.80;;;6.40;99.90;;;;;;5076432;28;20075;-72
2023/11/14 09:50:12;;;;;;;10.52;7.28;;;6.60;99.90;;;;;;5076217;28;20574;-72
2023/11/14 09:52:39;;;;;;;18.13;13.52;;;6.70;99.90;;;;;;5076701;28;20063;-72
2023/11/14 09:55:06;;;;;;;11.73;9.43;;;6.80;99.90;;;;;;5077060;28;20032;-72
2023/11/14 09:57:36;;;;;;;10.82;6.75;;;6.90;99.90;;;;;;5076836;28;20024;-72
2023/11/14 10:00:03;;;;;;;9.13;5.90;;;7.00;99.90;;;;;;5077080;28;20028;-72
2023/11/14 10:02:28;;;;;;;13.18;7.03;;;7.00;99.90;;;;;;5073927;28;20051;-72
2023/11/14 10:04:56;;;;;;;8.82;7.13;;;7.00;99.90;;;;;;5074131;28;20036;-72
2023/11/14 10:07:24;;;;;;;10.65;6.18;;;7.00;99.90;;;;;;5075513;28;20042;-72
2023/11/14 10:09:50;;;;;;;11.07;5.47;;;7.10;99.90;;;;;;5076072;28;20035;-72
2023/11/14 10:12:36;;;;;;;7.72;5.30;;;7.10;99.90;;;;;;5075667;28;20039;-72
2023/11/14 10:15:03;;;;;;;9.13;4.53;;;7.10;99.90;;;;;;5076426;28;20032;-72
2023/11/14 10:17:46;;;;;;;7.32;4.57;;;7.20;99.90;;;;;;5075536;28;20036;-72
2023/11/14 10:20:12;;;;;;;8.45;5.10;;;7.30;99.90;;;;;;5075397;28;20036;-73
2023/11/14 10:23:03;;;;;;;10.75;6.03;;;7.50;99.90;;;;;;5075692;28;20026;-72
2023/11/14 10:25:31;;;;;;;7.95;5.10;;;7.60;99.90;;;;;;5075398;28;20028;-73
2023/11/14 10:28:04;;;;;;;10.80;6.07;;;7.60;99.90;;;;;;5074541;28;20042;-73
2023/11/14 10:30:42;;;;;;;8.75;5.55;;;7.60;99.90;;;;;;5076436;28;20099;-72
2023/11/14 10:33:09;;;;;;;7.07;4.55;;;7.60;99.90;;;;;;5075969;28;20047;-72
2023/11/14 10:35:35;;;;;;;12.55;5.97;;;7.60;99.90;;;;;;5073397;28;20040;-72
2023/11/14 10:38:15;;;;;;;10.60;6.05;;;7.60;99.90;;;;;;5075686;28;20480;-73
2023/11/14 10:40:45;;;;;;;8.00;5.07;;;7.60;99.90;;;;;;5076315;28;20028;-72
2023/11/14 10:43:10;;;;;;;9.60;5.65;;;7.70;99.90;;;;;;5075853;28;21266;-72
2023/11/14 10:45:39;;;;;;;10.65;6.20;;;7.70;99.90;;;;;;5075045;28;20839;-72
2023/11/14 10:48:06;;;;;;;12.73;6.32;;;7.90;99.90;;;;;;5076319;28;20060;-73
2023/11/14 10:50:34;;;;;;;12.95;6.55;;;8.00;99.90;;;;;;5075327;28;20028;-72
2023/11/14 10:53:01;;;;;;;12.02;6.88;;;8.10;99.90;;;;;;5074478;28;20416;-72
2023/11/14 10:55:28;;;;;;;9.63;6.07;;;8.20;99.90;;;;;;5075679;28;20085;-73
2023/11/14 10:57:57;;;;;;;10.13;6.22;;;8.10;99.90;;;;;;5074096;28;20044;-72
2023/11/14 11:00:24;;;;;;;10.73;5.63;;;8.00;99.90;;;;;;5074535;28;20111;-72
2023/11/14 11:02:52;;;;;;;11.38;6.03;;;8.10;99.90;;;;;;5075635;28;20089;-72
2023/11/14 11:05:20;;;;;;;7.05;4.68;;;8.10;99.90;;;;;;5075108;28;20028;-72
2023/11/14 11:07:49;;;;;;;9.57;6.45;;;8.20;99.90;;;;;;5074815;28;20089;-73
2023/11/14 11:10:16;;;;;;;11.82;6.03;;;8.40;99.90;;;;;;5077644;28;20085;-72
2023/11/14 11:12:45;;;;;;;9.32;5.35;;;8.50;99.90;;;;;;5077608;28;20039;-72
2023/11/14 11:15:10;;;;;;;9.15;5.28;;;8.50;99.90;;;;;;5077391;28;20618;-72
2023/11/14 11:17:46;;;;;;;8.23;4.38;;;8.70;99.90;;;;;;5075532;28;20024;-73
2023/11/14 11:20:27;;;;;;;17.40;13.45;;;8.90;99.90;;;;;;5078150;28;20040;-72
2023/11/14 11:23:14;;;;;;;11.85;7.75;;;9.20;99.90;;;;;;5077971;28;20032;-72
2023/11/14 11:25:44;;;;;;;9.48;6.00;;;9.30;99.90;;;;;;5076882;28;20035;-72
2023/11/14 11:28:21;;;;;;;10.82;6.70;;;9.50;99.90;;;;;;5074509;28;20036;-72
2023/11/14 11:31:10;;;;;;;11.07;7.88;;;9.60;99.90;;;;;;5077870;28;20028;-72
2023/11/14 11:33:37;;;;;;;7.85;5.32;;;9.80;99.90;;;;;;5077352;28;20029;-73
2023/11/14 11:36:24;;;;;;;9.05;6.07;;;9.80;99.90;;;;;;5074766;28;20028;-73
2023/11/14 11:39:01;;;;;;;10.45;5.03;;;9.80;99.90;;;;;;5073533;28;20393;-72
2023/11/14 11:41:32;;;;;;;9.27;5.65;;;9.80;99.90;;;;;;5073812;28;20032;-72
2023/11/14 11:44:07;;;;;;;10.88;6.60;;;10.00;99.90;;;;;;5072552;28;20849;-73
2023/11/14 11:46:32;;;;;;;8.85;5.18;;;10.10;99.90;;;;;;5075199;28;20032;-72
2023/11/14 11:49:22;;;;;;;8.60;5.20;;;10.20;99.90;;;;;;5075506;28;20028;-72
2023/11/14 11:51:49;;;;;;;12.23;7.15;;;10.20;99.90;;;;;;5077275;28;20123;-73
2023/11/14 11:54:27;;;;;;;14.15;6.28;;;10.20;99.90;;;;;;5075740;28;20036;-73
2023/11/14 11:57:05;;;;;;;11.20;5.70;;;10.20;99.90;;;;;;5076981;28;20447;-72
2023/11/14 11:59:47;;;;;;;8.93;4.80;;;10.10;99.90;;;;;;5077434;28;20032;-72
2023/11/14 12:02:17;;;;;;;10.63;4.63;;;10.00;99.90;;;;;;5076782;28;20044;-72
2023/11/14 12:04:44;;;;;;;7.82;4.88;;;10.20;99.90;;;;;;5076900;28;20032;-72
2023/11/14 12:07:10;;;;;;;8.70;4.72;;;10.20;99.90;;;;;;5075794;28;20032;-73
2023/11/14 12:09:37;;;;;;;14.45;7.88;;;10.10;99.90;;;;;;5076806;28;20077;-72
2023/11/14 12:12:03;;;;;;;9.02;5.75;;;10.20;99.90;;;;;;5075476;28;20040;-72
2023/11/14 12:14:29;;;;;;;7.05;4.70;;;10.20;99.90;;;;;;5076950;28;20663;-72
2023/11/14 12:16:56;;;;;;;10.15;5.63;;;10.40;99.90;;;;;;5076891;28;20036;-72
2023/11/14 12:19:22;;;;;;;7.32;4.93;;;10.70;99.90;;;;;;5076332;28;20142;-72
2023/11/14 12:21:50;;;;;;;9.85;5.28;;;10.60;99.90;;;;;;5076322;28;20020;-72
2023/11/14 12:24:16;;;;;;;9.00;5.15;;;10.60;99.90;;;;;;5076995;28;20177;-73
2023/11/14 12:26:42;;;;;;;10.95;5.03;;;10.50;99.90;;;;;;5076770;28;20107;-73
2023/11/14 12:29:12;;;;;;;10.75;4.88;;;10.70;99.90;;;;;;5076187;28;20691;-72
2023/11/14 12:31:43;;;;;;;6.70;4.55;;;10.70;99.90;;;;;;5074963;28;20662;-73
2023/11/14 12:34:09;;;;;;;9.32;4.97;;;10.70;99.90;;;;;;5070547;28;20572;-75
2023/11/14 12:36:35;;;;;;;9.32;4.82;;;10.60;99.90;;;;;;5074042;28;20027;-75
2023/11/14 12:39:15;;;;;;;8.82;5.30;;;10.70;99.90;;;;;;5069309;28;20044;-74
2023/11/14 12:41:47;;;;;;;6.93;5.22;;;10.70;99.90;;;;;;5071842;28;20023;-73
2023/11/14 12:44:15;;;;;;;6.82;4.78;;;10.90;99.90;;;;;;5072510;28;20082;-73
2023/11/14 12:46:43;;;;;;;6.70;4.57;;;11.00;99.90;;;;;;5070865;28;20032;-73
2023/11/14 12:49:16;;;;;;;6.28;4.00;;;11.10;99.90;;;;;;5072399;28;20028;-72
2023/11/14 12:51:43;;;;;;;6.93;4.57;;;11.20;99.90;;;;;;5072261;28;20048;-72
2023/11/14 12:54:12;;;;;;;8.60;5.30;;;11.20;99.90;;;;;;5072224;28;20696;-72